createdAt,value
2022-12-03T00:02:21.299Z,2.89
2022-12-03T00:04:47.687Z,2.89
2022-12-03T00:07:13.975Z,2.88
2022-12-03T00:09:40.261Z,2.87
2022-12-03T00:12:06.511Z,2.86
2022-12-03T00:14:32.837Z,2.85
2022-12-03T00:16:59.083Z,2.83
2022-12-03T00:19:25.331Z,2.82
2022-12-03T00:21:51.586Z,2.80
2022-12-03T00:24:17.931Z,2.81
2022-12-03T00:26:44.314Z,2.80
2022-12-03T00:29:11.199Z,2.78
2022-12-03T00:31:37.517Z,2.78
2022-12-03T00:34:03.800Z,2.78
2022-12-03T00:36:30.098Z,2.77
2022-12-03T00:38:56.368Z,2.76
2022-12-03T00:41:22.715Z,2.75
2022-12-03T00:43:48.968Z,2.74
2022-12-03T00:46:19.828Z,2.73
2022-12-03T00:48:47.698Z,2.72
2022-12-03T00:51:13.955Z,2.72
2022-12-03T00:53:40.229Z,2.71
2022-12-03T00:56:06.825Z,2.71
2022-12-03T00:58:33.063Z,2.67
2022-12-03T01:00:59.356Z,2.70
2022-12-03T01:03:25.857Z,2.71
2022-12-03T01:05:52.131Z,2.71
2022-12-03T01:08:18.393Z,2.72
2022-12-03T01:10:44.644Z,2.71
2022-12-03T01:13:10.901Z,2.70
2022-12-03T01:15:37.226Z,2.69
2022-12-03T01:18:03.589Z,2.70
2022-12-03T01:20:29.868Z,2.69
2022-12-03T01:22:56.109Z,2.71
2022-12-03T01:25:22.424Z,2.70
2022-12-03T01:27:48.683Z,2.70
2022-12-03T01:30:15.154Z,2.67
2022-12-03T01:32:41.417Z,2.68
2022-12-03T01:35:07.889Z,2.69
2022-12-03T01:37:34.167Z,2.67
2022-12-03T01:40:00.410Z,2.68
2022-12-03T01:42:29.658Z,2.67
2022-12-03T01:44:57.051Z,2.65
2022-12-03T01:47:41.528Z,2.64
2022-12-03T01:50:15.454Z,2.62
2022-12-03T01:52:42.021Z,2.62
2022-12-03T01:55:13.273Z,2.62
2022-12-03T01:57:47.474Z,2.62
2022-12-03T02:00:17.921Z,2.62
2022-12-03T02:02:44.658Z,2.63
2022-12-03T02:05:16.063Z,2.62
2022-12-03T02:07:42.344Z,2.61
2022-12-03T02:10:08.833Z,2.62
2022-12-03T02:12:37.458Z,2.60
2022-12-03T02:15:05.035Z,2.62
2022-12-03T02:17:31.806Z,2.61
2022-12-03T02:19:58.727Z,2.59
2022-12-03T02:22:44.902Z,2.59
2022-12-03T02:25:12.178Z,2.61
2022-12-03T02:27:38.720Z,2.61
2022-12-03T02:30:06.427Z,2.59
2022-12-03T02:32:32.692Z,2.58
2022-12-03T02:34:58.934Z,2.59
2022-12-03T02:37:27.599Z,2.59
2022-12-03T02:39:55.607Z,2.58
2022-12-03T02:42:51.587Z,2.56
2022-12-03T02:45:20.933Z,2.56
2022-12-03T02:47:49.728Z,2.54
2022-12-03T02:50:18.653Z,2.54
2022-12-03T02:52:46.097Z,2.54
2022-12-03T02:55:13.896Z,2.55
2022-12-03T02:57:40.926Z,2.55
2022-12-03T03:00:08.731Z,2.52
2022-12-03T03:02:36.504Z,2.52
2022-12-03T03:05:03.314Z,2.49
2022-12-03T03:07:29.662Z,2.49
2022-12-03T03:09:55.968Z,2.47
2022-12-03T03:12:22.258Z,2.49
2022-12-03T03:14:48.647Z,2.49
2022-12-03T03:17:14.940Z,2.47
2022-12-03T03:19:41.949Z,2.45
2022-12-03T03:22:09.637Z,2.48
2022-12-03T03:24:51.948Z,2.46
2022-12-03T03:27:18.421Z,2.45
2022-12-03T03:29:44.680Z,2.45
2022-12-03T03:32:10.995Z,2.41
2022-12-03T03:34:37.352Z,2.42
2022-12-03T03:37:03.731Z,2.43
2022-12-03T03:39:30.078Z,2.41
2022-12-03T03:41:56.406Z,2.43
2022-12-03T03:44:22.684Z,2.42
2022-12-03T03:46:49.083Z,2.40
2022-12-03T03:49:16.196Z,2.40
2022-12-03T03:51:42.548Z,2.39
2022-12-03T03:54:09.277Z,2.39
2022-12-03T03:56:35.584Z,2.39
2022-12-03T03:59:02.392Z,2.37
2022-12-03T04:01:28.891Z,2.37
2022-12-03T04:03:55.850Z,2.38
2022-12-03T04:06:22.142Z,2.33
2022-12-03T04:08:48.405Z,2.34
2022-12-03T04:11:33.224Z,2.32
2022-12-03T04:13:59.522Z,2.30
2022-12-03T04:16:25.839Z,2.29
2022-12-03T04:18:52.133Z,2.32
2022-12-03T04:21:41.199Z,2.31
2022-12-03T04:24:08.450Z,2.28
2022-12-03T04:26:53.188Z,2.28
2022-12-03T04:29:19.747Z,2.28
2022-12-03T04:32:04.775Z,2.30
2022-12-03T04:34:49.588Z,2.30
2022-12-03T04:37:16.297Z,2.26
2022-12-03T04:39:42.706Z,2.28
2022-12-03T04:42:08.982Z,2.28
2022-12-03T04:44:38.190Z,2.25
2022-12-03T04:47:09.741Z,2.25
2022-12-03T04:49:37.148Z,2.26
2022-12-03T04:52:03.612Z,2.28
2022-12-03T04:54:30.261Z,2.25
2022-12-03T04:56:56.583Z,2.23
2022-12-03T04:59:22.864Z,2.19
2022-12-03T05:01:49.218Z,2.16
2022-12-03T05:04:15.723Z,2.12
2022-12-03T05:06:42.399Z,2.06
2022-12-03T05:09:08.956Z,1.99
2022-12-03T05:11:35.451Z,1.98
2022-12-03T05:14:01.830Z,1.94
2022-12-03T05:16:28.188Z,1.94
2022-12-03T05:18:54.622Z,1.87
2022-12-03T05:21:20.896Z,1.89
2022-12-03T05:23:47.150Z,1.89
2022-12-03T05:26:13.398Z,1.88
2022-12-03T05:28:39.673Z,1.79
2022-12-03T05:31:06.045Z,1.76
2022-12-03T05:33:32.432Z,1.73
2022-12-03T05:35:58.660Z,1.74
2022-12-03T05:38:24.932Z,1.71
2022-12-03T05:40:51.177Z,1.67
2022-12-03T05:43:17.426Z,1.62
2022-12-03T05:45:44.362Z,1.50
2022-12-03T05:48:11.783Z,1.44
2022-12-03T05:50:39.266Z,1.38
2022-12-03T05:53:06.023Z,1.20
2022-12-03T05:55:32.323Z,1.15
2022-12-03T05:57:58.569Z,1.08
2022-12-03T06:00:26.789Z,1.07
2022-12-03T06:02:53.449Z,1.03
2022-12-03T06:05:20.427Z,1.02
2022-12-03T06:07:47.466Z,1.01
2022-12-03T06:10:14.650Z,1.00
2022-12-03T06:12:41.102Z,1.03
2022-12-03T06:15:07.529Z,1.03
2022-12-03T06:17:33.783Z,1.05
2022-12-03T06:20:00.028Z,1.02
2022-12-03T06:22:26.483Z,1.00
2022-12-03T06:24:53.231Z,1.03
2022-12-03T06:27:20.024Z,1.04
2022-12-03T06:29:46.336Z,1.07
2022-12-03T06:32:12.583Z,1.10
2022-12-03T06:34:38.889Z,1.12
2022-12-03T06:37:05.147Z,1.13
2022-12-03T06:39:31.398Z,1.15
2022-12-03T06:41:57.679Z,1.15
2022-12-03T06:44:23.929Z,1.16
2022-12-03T06:46:50.334Z,1.15
2022-12-03T06:49:16.666Z,1.16
2022-12-03T06:51:42.920Z,1.13
2022-12-03T06:54:09.180Z,1.12
2022-12-03T06:56:40.413Z,1.09
2022-12-03T06:59:11.107Z,1.08
2022-12-03T07:01:37.424Z,1.10
2022-12-03T07:04:03.727Z,1.11
2022-12-03T07:06:30.058Z,1.12
2022-12-03T07:08:56.305Z,1.14
2022-12-03T07:11:31.385Z,1.16
2022-12-03T07:14:04.416Z,1.17
2022-12-03T07:16:31.609Z,1.20
2022-12-03T07:18:57.882Z,1.21
2022-12-03T07:21:24.189Z,1.19
2022-12-03T07:23:50.452Z,1.20
2022-12-03T07:26:16.703Z,1.22
2022-12-03T07:28:42.963Z,1.21
2022-12-03T07:31:09.285Z,1.21
2022-12-03T07:33:35.598Z,1.24
2022-12-03T07:36:01.906Z,1.23
2022-12-03T07:38:28.145Z,1.20
2022-12-03T07:40:54.394Z,1.17
2022-12-03T07:43:20.655Z,1.13
2022-12-03T07:45:46.916Z,1.10
2022-12-03T07:48:13.157Z,1.07
2022-12-03T07:50:39.489Z,1.06
2022-12-03T07:53:05.784Z,1.04
2022-12-03T07:55:32.067Z,1.07
2022-12-03T07:57:58.316Z,1.10
2022-12-03T08:00:24.585Z,1.11
2022-12-03T08:02:50.906Z,1.11
2022-12-03T08:05:17.203Z,1.10
2022-12-03T08:07:43.456Z,1.09
2022-12-03T08:10:09.981Z,1.04
2022-12-03T08:12:40.685Z,0.98
2022-12-03T08:15:16.145Z,0.89
2022-12-03T08:17:42.978Z,0.82
2022-12-03T08:20:19.738Z,0.77
2022-12-03T08:22:47.415Z,0.77
2022-12-03T08:25:23.948Z,0.76
2022-12-03T08:27:51.108Z,0.74
2022-12-03T08:30:17.603Z,0.76
2022-12-03T08:32:44.132Z,0.75
2022-12-03T08:35:14.347Z,0.77
2022-12-03T08:37:40.931Z,0.78
2022-12-03T08:40:21.791Z,0.84
2022-12-03T08:42:48.221Z,0.83
2022-12-03T08:45:30.322Z,0.87
2022-12-03T08:47:57.614Z,0.89
2022-12-03T08:50:24.101Z,0.90
2022-12-03T08:52:50.405Z,0.89
2022-12-03T08:55:35.857Z,0.90
2022-12-03T08:58:13.908Z,0.89
2022-12-03T09:00:41.498Z,0.89
2022-12-03T09:03:10.869Z,0.87
2022-12-03T09:05:37.351Z,0.88
2022-12-03T09:08:03.655Z,0.89
2022-12-03T09:10:30.222Z,0.92
2022-12-03T09:12:56.949Z,0.94
2022-12-03T09:15:23.280Z,0.96
2022-12-03T09:17:49.603Z,0.98
2022-12-03T09:20:15.925Z,0.99
2022-12-03T09:22:42.219Z,0.99
2022-12-03T09:25:08.732Z,1.00
2022-12-03T09:27:35.203Z,1.04
2022-12-03T09:30:01.527Z,1.05
2022-12-03T09:32:27.884Z,1.08
2022-12-03T09:34:54.652Z,1.13
2022-12-03T09:37:22.188Z,1.14
2022-12-03T09:39:48.820Z,1.16
2022-12-03T09:42:15.242Z,1.19
2022-12-03T09:44:41.635Z,1.17
2022-12-03T09:47:08.202Z,1.20
2022-12-03T09:49:36.803Z,1.17
2022-12-03T09:52:04.689Z,1.22
2022-12-03T09:54:32.401Z,1.26
2022-12-03T09:57:00.240Z,1.29
2022-12-03T09:59:29.932Z,1.32
2022-12-03T10:01:56.769Z,1.33
2022-12-03T10:04:23.395Z,1.36
2022-12-03T10:06:49.887Z,1.36
2022-12-03T10:09:20.783Z,1.38
2022-12-03T10:11:47.152Z,1.41
2022-12-03T10:14:14.454Z,1.44
2022-12-03T10:16:41.236Z,1.42
2022-12-03T10:19:16.132Z,1.41
2022-12-03T10:21:42.440Z,1.39
2022-12-03T10:24:17.848Z,1.48
2022-12-03T10:26:45.529Z,1.49
2022-12-03T10:29:18.462Z,1.54
2022-12-03T10:31:45.226Z,1.56
2022-12-03T10:34:11.685Z,1.60
2022-12-03T10:36:38.221Z,1.61
2022-12-03T10:39:14.681Z,1.65
2022-12-03T10:41:42.055Z,1.71
2022-12-03T10:44:12.868Z,1.68
2022-12-03T10:46:39.209Z,1.76
2022-12-03T10:49:10.878Z,1.75
2022-12-03T10:51:38.520Z,1.75
2022-12-03T10:54:13.396Z,1.80
2022-12-03T10:56:39.742Z,1.81
2022-12-03T10:59:06.033Z,1.83
2022-12-03T11:01:32.400Z,1.78
2022-12-03T11:04:02.827Z,1.79
2022-12-03T11:06:30.677Z,1.75
2022-12-03T11:09:01.429Z,1.73
2022-12-03T11:11:30.841Z,1.76
2022-12-03T11:14:01.304Z,1.75
2022-12-03T11:16:39.544Z,1.73
2022-12-03T11:19:14.512Z,1.75
2022-12-03T11:21:59.411Z,1.76
2022-12-03T11:24:25.729Z,1.74
2022-12-03T11:26:52.358Z,1.75
2022-12-03T11:29:38.667Z,1.74
2022-12-03T11:32:04.951Z,1.78
2022-12-03T11:34:34.018Z,1.77
2022-12-03T11:37:09.400Z,1.76
2022-12-03T11:39:44.707Z,1.78
2022-12-03T11:42:26.283Z,1.79
2022-12-03T11:45:05.203Z,1.78
2022-12-03T11:47:34.391Z,1.80
2022-12-03T11:50:01.184Z,1.80
2022-12-03T11:52:29.634Z,1.81
2022-12-03T11:54:59.415Z,1.75
2022-12-03T11:57:28.798Z,1.71
2022-12-03T12:00:18.298Z,1.72
2022-12-03T12:02:44.649Z,1.74
2022-12-03T12:05:29.490Z,1.70
2022-12-03T12:07:56.601Z,1.67
2022-12-03T12:10:41.680Z,1.68
2022-12-03T12:13:25.050Z,1.63
2022-12-03T12:15:51.617Z,1.60
2022-12-03T12:18:33.715Z,1.60
2022-12-03T12:21:18.570Z,1.62
2022-12-03T12:23:44.861Z,1.55
2022-12-03T12:26:14.009Z,1.48
2022-12-03T12:28:40.393Z,1.42
2022-12-03T12:31:11.775Z,1.38
2022-12-03T12:33:38.608Z,1.18
2022-12-03T12:36:08.148Z,1.03
2022-12-03T12:38:34.496Z,0.99
2022-12-03T12:41:04.437Z,0.87
2022-12-03T12:43:32.565Z,0.78
2022-12-03T12:46:31.396Z,0.73
2022-12-03T12:48:59.346Z,0.71
2022-12-03T12:51:26.212Z,0.68
2022-12-03T12:53:53.482Z,0.67
2022-12-03T12:56:27.301Z,0.65
2022-12-03T12:58:59.331Z,0.64
2022-12-03T13:01:26.989Z,0.64
2022-12-03T13:03:53.402Z,0.66
2022-12-03T13:06:23.552Z,0.68
2022-12-03T13:08:50.238Z,0.71
2022-12-03T13:11:38.616Z,0.74
2022-12-03T13:14:22.269Z,0.74
2022-12-03T13:16:50.169Z,0.74
2022-12-03T13:19:19.581Z,0.86
2022-12-03T13:21:45.912Z,0.98
2022-12-03T13:24:26.448Z,1.14
2022-12-03T13:26:52.828Z,1.13
2022-12-03T13:29:20.276Z,1.16
2022-12-03T13:31:50.624Z,1.12
2022-12-03T13:34:20.632Z,1.17
2022-12-03T13:36:51.970Z,1.10
2022-12-03T13:39:23.168Z,1.25
2022-12-03T13:42:08.310Z,1.16
2022-12-03T13:44:42.936Z,1.24
2022-12-03T13:47:18.436Z,1.21
2022-12-03T13:49:50.963Z,1.25
2022-12-03T13:52:19.811Z,1.27
2022-12-03T13:54:47.492Z,1.32
2022-12-03T13:57:13.736Z,1.23
2022-12-03T13:59:40.354Z,1.20
2022-12-03T14:02:06.627Z,1.27
2022-12-03T14:04:33.022Z,1.21
2022-12-03T14:06:59.564Z,1.17
2022-12-03T14:09:25.941Z,1.13
2022-12-03T14:12:11.143Z,1.08
2022-12-03T14:14:38.061Z,1.06
2022-12-03T14:17:04.531Z,1.09
2022-12-03T14:19:31.169Z,1.06
2022-12-03T14:21:57.479Z,1.04
2022-12-03T14:24:23.753Z,1.01
2022-12-03T14:26:50.039Z,0.97
2022-12-03T14:29:16.370Z,0.93
2022-12-03T14:31:42.691Z,0.99
2022-12-03T14:34:09.024Z,1.00
2022-12-03T14:36:35.269Z,0.99
2022-12-03T14:39:01.531Z,0.98
2022-12-03T14:41:46.302Z,0.94
2022-12-03T14:44:12.560Z,0.94
2022-12-03T14:46:38.793Z,0.92
2022-12-03T14:49:05.056Z,0.88
2022-12-03T14:51:31.420Z,0.94
2022-12-03T14:53:57.690Z,0.98
2022-12-03T14:56:23.965Z,0.99
2022-12-03T14:58:50.272Z,0.99
2022-12-03T15:01:16.568Z,0.97
2022-12-03T15:03:42.903Z,0.97
2022-12-03T15:06:09.272Z,0.95
2022-12-03T15:08:35.536Z,0.94
2022-12-03T15:11:01.810Z,0.94
2022-12-03T15:13:28.099Z,0.93
2022-12-03T15:15:54.468Z,0.93
2022-12-03T15:18:20.786Z,0.93
2022-12-03T15:20:47.256Z,0.92
2022-12-03T15:23:14.609Z,0.94
2022-12-03T15:25:41.325Z,0.95
2022-12-03T15:28:07.661Z,0.93
2022-12-03T15:30:36.703Z,0.92
2022-12-03T15:33:03.368Z,0.89
2022-12-03T15:35:29.907Z,0.91
2022-12-03T15:37:56.377Z,0.90
2022-12-03T15:40:22.905Z,0.87
2022-12-03T15:42:49.167Z,0.87
2022-12-03T15:45:15.768Z,0.89
2022-12-03T15:47:42.124Z,0.89
2022-12-03T15:50:08.592Z,0.89
2022-12-03T15:52:35.256Z,0.91
2022-12-03T15:55:01.704Z,0.87
2022-12-03T15:57:27.965Z,0.86
2022-12-03T15:59:56.123Z,0.90
2022-12-03T16:02:22.769Z,0.88
2022-12-03T16:04:49.181Z,0.85
2022-12-03T16:07:15.569Z,0.83
2022-12-03T16:09:42.246Z,0.83
2022-12-03T16:12:08.632Z,0.83
2022-12-03T16:14:35.135Z,0.82
2022-12-03T16:17:02.238Z,0.84
2022-12-03T16:19:28.652Z,0.86
2022-12-03T16:21:55.239Z,0.85
2022-12-03T16:24:21.639Z,0.89
2022-12-03T16:26:48.407Z,0.87
2022-12-03T16:29:15.356Z,0.88
2022-12-03T16:31:42.144Z,0.82
2022-12-03T16:34:08.596Z,0.83
2022-12-03T16:36:35.309Z,0.84
2022-12-03T16:39:02.001Z,0.84
2022-12-03T16:41:28.754Z,0.82
2022-12-03T16:43:55.051Z,0.84
2022-12-03T16:46:25.786Z,0.85
2022-12-03T16:48:55.393Z,0.86
2022-12-03T16:51:21.979Z,0.86
2022-12-03T16:53:48.667Z,0.87
2022-12-03T16:56:15.262Z,0.85
2022-12-03T16:58:41.917Z,0.85
2022-12-03T17:01:08.291Z,0.84
2022-12-03T17:03:34.670Z,0.83
2022-12-03T17:06:01.425Z,0.82
2022-12-03T17:08:27.750Z,0.81
2022-12-03T17:10:54.439Z,0.82
2022-12-03T17:13:21.154Z,0.81
2022-12-03T17:15:47.488Z,0.79
2022-12-03T17:18:16.530Z,0.79
2022-12-03T17:20:43.022Z,0.79
2022-12-03T17:23:09.322Z,0.80
2022-12-03T17:25:35.641Z,0.80
2022-12-03T17:28:01.989Z,0.83
2022-12-03T17:30:28.268Z,0.83
2022-12-03T17:32:54.500Z,0.85
2022-12-03T17:35:20.799Z,0.85
2022-12-03T17:37:47.073Z,0.85
2022-12-03T17:40:14.267Z,0.87
2022-12-03T17:42:40.572Z,0.88
2022-12-03T17:45:07.275Z,0.88
2022-12-03T17:47:33.544Z,0.89
2022-12-03T17:49:59.820Z,0.91
2022-12-03T17:52:26.073Z,0.93
2022-12-03T17:55:10.791Z,0.92
2022-12-03T17:57:38.981Z,0.92
2022-12-03T18:00:05.845Z,0.93
2022-12-03T18:02:32.072Z,0.94
2022-12-03T18:04:58.310Z,0.95
2022-12-03T18:07:24.589Z,0.94
2022-12-03T18:09:50.892Z,0.97
2022-12-03T18:12:17.193Z,0.95
2022-12-03T18:14:43.494Z,0.97
2022-12-03T18:17:09.746Z,0.96
2022-12-03T18:19:35.991Z,0.98
2022-12-03T18:22:02.298Z,0.95
2022-12-03T18:24:28.688Z,0.90
2022-12-03T18:26:54.940Z,0.87
2022-12-03T18:29:21.227Z,0.86
2022-12-03T18:31:47.574Z,0.83
2022-12-03T18:34:13.873Z,0.84
2022-12-03T18:36:40.154Z,0.83
2022-12-03T18:39:09.109Z,0.82
2022-12-03T18:41:35.671Z,0.82
2022-12-03T18:44:03.053Z,0.80
2022-12-03T18:46:52.370Z,0.81
2022-12-03T18:49:15.544Z,0.76
2022-12-03T18:51:41.804Z,0.76
2022-12-03T18:54:14.299Z,0.77
2022-12-03T18:56:41.246Z,0.75
2022-12-03T18:59:07.605Z,0.77
2022-12-03T19:01:34.494Z,0.74
2022-12-03T19:04:00.822Z,0.73
2022-12-03T19:06:28.911Z,0.73
2022-12-03T19:08:55.246Z,0.72
2022-12-03T19:11:21.671Z,0.72
2022-12-03T19:13:47.979Z,0.70
2022-12-03T19:16:16.878Z,0.64
2022-12-03T19:18:43.813Z,0.67
2022-12-03T19:21:11.649Z,0.63
2022-12-03T19:23:38.461Z,0.56
2022-12-03T19:26:05.845Z,0.53
2022-12-03T19:28:32.495Z,0.49
2022-12-03T19:31:03.638Z,0.47
2022-12-03T19:33:31.290Z,0.43
2022-12-03T19:35:58.848Z,0.38
2022-12-03T19:38:26.138Z,0.38
2022-12-03T19:40:59.603Z,0.34
2022-12-03T19:43:25.989Z,0.29
2022-12-03T19:45:53.796Z,0.31
2022-12-03T19:48:22.039Z,0.29
2022-12-03T19:51:07.825Z,0.32
2022-12-03T19:53:38.898Z,0.30
2022-12-03T19:56:06.902Z,0.31
2022-12-03T19:58:33.355Z,0.29
2022-12-03T20:01:07.194Z,0.29
2022-12-03T20:03:33.642Z,0.25
2022-12-03T20:06:00.550Z,0.24
2022-12-03T20:08:27.051Z,0.27
2022-12-03T20:10:53.549Z,0.21
2022-12-03T20:13:19.899Z,0.19
2022-12-03T20:15:46.590Z,0.16
2022-12-03T20:18:12.950Z,0.16
2022-12-03T20:20:42.197Z,0.14
2022-12-03T20:23:08.601Z,0.10
2022-12-03T20:25:36.429Z,0.09
2022-12-03T20:28:02.772Z,0.07
2022-12-03T20:30:29.128Z,0.05
2022-12-03T20:32:58.769Z,0.07
2022-12-03T20:35:25.070Z,0.09
2022-12-03T20:37:51.345Z,0.07
2022-12-03T20:40:17.699Z,-0.03
2022-12-03T20:42:46.595Z,-0.01
2022-12-03T20:45:12.842Z,-0.10
2022-12-03T20:47:39.127Z,-0.19
2022-12-03T20:50:05.711Z,-0.21
2022-12-03T20:52:31.967Z,-0.27
2022-12-03T20:54:58.235Z,-0.29
2022-12-03T20:57:24.501Z,-0.36
2022-12-03T20:59:50.784Z,-0.41
2022-12-03T21:02:17.270Z,-0.38
2022-12-03T21:04:43.599Z,-0.42
2022-12-03T21:07:09.932Z,-0.43
2022-12-03T21:09:36.705Z,-0.42
2022-12-03T21:12:02.976Z,-0.48
2022-12-03T21:14:29.348Z,-0.43
2022-12-03T21:17:11.955Z,-0.46
2022-12-03T21:19:38.307Z,-0.45
2022-12-03T21:22:05.121Z,-0.50
2022-12-03T21:24:31.413Z,-0.51
2022-12-03T21:26:57.812Z,-0.51
2022-12-03T21:29:24.612Z,-0.55
2022-12-03T21:31:51.148Z,-0.49
2022-12-03T21:34:17.408Z,-0.58
2022-12-03T21:36:43.828Z,-0.57
2022-12-03T21:39:10.366Z,-0.63
2022-12-03T21:41:36.691Z,-0.60
2022-12-03T21:44:03.193Z,-0.64
2022-12-03T21:47:11.392Z,-0.66
2022-12-03T21:49:19.197Z,-0.66
2022-12-03T21:51:46.071Z,-0.75
2022-12-03T21:54:12.440Z,-0.74
2022-12-03T21:56:38.712Z,-0.72
2022-12-03T21:59:04.982Z,-0.78
2022-12-03T22:01:31.294Z,-0.73
2022-12-03T22:03:57.618Z,-0.74
2022-12-03T22:06:23.874Z,-0.81
2022-12-03T22:08:50.143Z,-0.75
2022-12-03T22:11:18.114Z,-0.81
2022-12-03T22:13:44.568Z,-0.83
2022-12-03T22:16:12.728Z,-0.83
2022-12-03T22:18:39.254Z,-0.81
2022-12-03T22:21:06.594Z,-0.85
2022-12-03T22:23:33.117Z,-0.83
2022-12-03T22:26:04.913Z,-0.85
2022-12-03T22:28:31.417Z,-0.88
2022-12-03T22:30:57.767Z,-0.87
2022-12-03T22:33:24.237Z,-0.85
2022-12-03T22:35:57.294Z,-0.87
2022-12-03T22:38:23.781Z,-0.87
2022-12-03T22:40:50.083Z,-0.87
2022-12-03T22:43:16.726Z,-0.88
2022-12-03T22:45:42.983Z,-0.88
2022-12-03T22:48:09.272Z,-0.93
2022-12-03T22:50:40.763Z,-0.92
2022-12-03T22:53:07.026Z,-0.94
2022-12-03T22:55:33.267Z,-0.96
2022-12-03T22:57:59.563Z,-0.93
2022-12-03T23:00:33.220Z,-0.92
2022-12-03T23:02:59.924Z,-0.93
2022-12-03T23:05:26.218Z,-0.94
2022-12-03T23:07:52.590Z,-1.00
2022-12-03T23:10:18.909Z,-0.95
2022-12-03T23:12:45.184Z,-0.91
2022-12-03T23:15:11.498Z,-0.88
2022-12-03T23:17:37.751Z,-0.88
2022-12-03T23:20:04.139Z,-0.90
2022-12-03T23:22:30.380Z,-0.91
2022-12-03T23:24:56.649Z,-0.94
2022-12-03T23:27:22.891Z,-0.96
2022-12-03T23:29:49.154Z,-0.94
2022-12-03T23:32:15.622Z,-0.98
2022-12-03T23:34:41.960Z,-0.99
2022-12-03T23:37:08.277Z,-0.98
2022-12-03T23:39:34.544Z,-1.00
2022-12-03T23:42:00.800Z,-0.98
2022-12-03T23:44:27.400Z,-1.00
2022-12-03T23:46:53.713Z,-1.00
2022-12-03T23:49:19.969Z,-0.97
2022-12-03T23:51:46.216Z,-0.98
2022-12-03T23:54:12.608Z,-0.96
2022-12-03T23:56:39.445Z,-0.99
2022-12-03T23:59:05.691Z,-0.93
